sensor_id;sensor_type;location;lat;lon;timestamp;P1;durP1;ratioP1;P2;durP2;ratioP2
59161;SDS011;44942;48.936;8.260;2023-04-15T00:03:32;1.70;;;1.40;;
59161;SDS011;44942;48.936;8.260;2023-04-15T00:08:33;1.63;;;1.50;;
59161;SDS011;44942;48.936;8.260;2023-04-15T00:13:33;1.50;;;1.40;;
59161;SDS011;44942;48.936;8.260;2023-04-15T00:18:34;1.60;;;1.50;;
59161;SDS011;44942;48.936;8.260;2023-04-15T00:23:35;1.63;;;1.50;;
59161;SDS011;44942;48.936;8.260;2023-04-15T00:28:36;1.90;;;1.70;;
59161;SDS011;44942;48.936;8.260;2023-04-15T00:33:37;1.77;;;1.60;;
59161;SDS011;44942;48.936;8.260;2023-04-15T00:38:37;2.03;;;1.83;;
59161;SDS011;44942;48.936;8.260;2023-04-15T00:43:38;1.90;;;1.37;;
59161;SDS011;44942;48.936;8.260;2023-04-15T00:48:39;2.70;;;1.97;;
59161;SDS011;44942;48.936;8.260;2023-04-15T00:53:40;2.03;;;1.70;;
59161;SDS011;44942;48.936;8.260;2023-04-15T00:58:41;2.77;;;1.83;;
59161;SDS011;44942;48.936;8.260;2023-04-15T01:03:41;2.37;;;1.63;;
59161;SDS011;44942;48.936;8.260;2023-04-15T01:08:42;1.63;;;1.53;;
59161;SDS011;44942;48.936;8.260;2023-04-15T01:13:43;1.67;;;1.58;;
59161;SDS011;44942;48.936;8.260;2023-04-15T01:18:44;2.13;;;1.87;;
59161;SDS011;44942;48.936;8.260;2023-04-15T01:23:46;2.45;;;1.85;;
59161;SDS011;44942;48.936;8.260;2023-04-15T01:28:47;2.80;;;1.90;;
59161;SDS011;44942;48.936;8.260;2023-04-15T01:33:48;1.73;;;1.60;;
59161;SDS011;44942;48.936;8.260;2023-04-15T01:38:48;2.13;;;1.70;;
59161;SDS011;44942;48.936;8.260;2023-04-15T01:43:50;1.95;;;1.75;;
59161;SDS011;44942;48.936;8.260;2023-04-15T01:48:51;1.95;;;1.75;;
59161;SDS011;44942;48.936;8.260;2023-04-15T01:53:52;2.00;;;1.80;;
59161;SDS011;44942;48.936;8.260;2023-04-15T01:58:52;2.20;;;1.90;;
59161;SDS011;44942;48.936;8.260;2023-04-15T02:03:53;2.00;;;1.80;;
59161;SDS011;44942;48.936;8.260;2023-04-15T02:08:53;1.80;;;1.70;;
59161;SDS011;44942;48.936;8.260;2023-04-15T02:13:54;2.90;;;2.33;;
59161;SDS011;44942;48.936;8.260;2023-04-15T02:18:55;1.95;;;1.75;;
59161;SDS011;44942;48.936;8.260;2023-04-15T02:23:56;3.57;;;1.97;;
59161;SDS011;44942;48.936;8.260;2023-04-15T02:28:56;2.00;;;1.80;;
59161;SDS011;44942;48.936;8.260;2023-04-15T02:33:57;2.30;;;2.10;;
59161;SDS011;44942;48.936;8.260;2023-04-15T02:43:59;2.27;;;1.90;;
59161;SDS011;44942;48.936;8.260;2023-04-15T02:49:00;2.23;;;2.00;;
59161;SDS011;44942;48.936;8.260;2023-04-15T02:54:02;1.85;;;1.65;;
59161;SDS011;44942;48.936;8.260;2023-04-15T02:59:06;2.15;;;1.90;;
59161;SDS011;44942;48.936;8.260;2023-04-15T03:04:06;1.40;;;1.30;;
59161;SDS011;44942;48.936;8.260;2023-04-15T03:09:07;2.28;;;2.00;;
59161;SDS011;44942;48.936;8.260;2023-04-15T03:14:08;2.17;;;1.97;;
59161;SDS011;44942;48.936;8.260;2023-04-15T03:19:08;2.47;;;2.07;;
59161;SDS011;44942;48.936;8.260;2023-04-15T03:24:09;2.00;;;1.83;;
59161;SDS011;44942;48.936;8.260;2023-04-15T03:29:10;2.00;;;1.80;;
59161;SDS011;44942;48.936;8.260;2023-04-15T03:34:10;3.07;;;1.90;;
59161;SDS011;44942;48.936;8.260;2023-04-15T03:39:11;2.57;;;2.10;;
59161;SDS011;44942;48.936;8.260;2023-04-15T03:44:12;2.00;;;1.80;;
59161;SDS011;44942;48.936;8.260;2023-04-15T03:49:12;1.87;;;1.63;;
59161;SDS011;44942;48.936;8.260;2023-04-15T03:54:13;2.27;;;2.03;;
59161;SDS011;44942;48.936;8.260;2023-04-15T03:59:14;2.40;;;2.00;;
59161;SDS011;44942;48.936;8.260;2023-04-15T04:04:14;2.37;;;2.07;;
59161;SDS011;44942;48.936;8.260;2023-04-15T04:09:15;2.23;;;2.03;;
59161;SDS011;44942;48.936;8.260;2023-04-15T04:14:16;3.23;;;1.90;;
59161;SDS011;44942;48.936;8.260;2023-04-15T04:19:16;2.37;;;1.97;;
59161;SDS011;44942;48.936;8.260;2023-04-15T04:24:18;2.42;;;2.03;;
59161;SDS011;44942;48.936;8.260;2023-04-15T04:29:19;2.60;;;2.23;;
59161;SDS011;44942;48.936;8.260;2023-04-15T04:34:19;2.20;;;1.80;;
59161;SDS011;44942;48.936;8.260;2023-04-15T04:39:20;2.20;;;1.83;;
59161;SDS011;44942;48.936;8.260;2023-04-15T04:44:21;2.43;;;2.03;;
59161;SDS011;44942;48.936;8.260;2023-04-15T04:49:21;2.50;;;2.20;;
59161;SDS011;44942;48.936;8.260;2023-04-15T04:54:22;2.00;;;1.80;;
59161;SDS011;44942;48.936;8.260;2023-04-15T04:59:24;2.13;;;1.90;;
59161;SDS011;44942;48.936;8.260;2023-04-15T05:04:24;2.10;;;1.90;;
59161;SDS011;44942;48.936;8.260;2023-04-15T05:09:25;2.30;;;2.10;;
59161;SDS011;44942;48.936;8.260;2023-04-15T05:14:26;2.47;;;1.93;;
59161;SDS011;44942;48.936;8.260;2023-04-15T05:19:26;2.50;;;2.13;;
59161;SDS011;44942;48.936;8.260;2023-04-15T05:24:27;2.90;;;2.20;;
59161;SDS011;44942;48.936;8.260;2023-04-15T05:29:27;2.33;;;2.13;;
59161;SDS011;44942;48.936;8.260;2023-04-15T05:34:28;2.17;;;1.97;;
59161;SDS011;44942;48.936;8.260;2023-04-15T05:39:28;2.50;;;2.13;;
59161;SDS011;44942;48.936;8.260;2023-04-15T05:44:31;2.22;;;1.90;;
59161;SDS011;44942;48.936;8.260;2023-04-15T05:49:32;2.37;;;2.17;;
59161;SDS011;44942;48.936;8.260;2023-04-15T05:54:32;2.60;;;2.17;;
59161;SDS011;44942;48.936;8.260;2023-04-15T05:59:33;2.50;;;2.23;;
59161;SDS011;44942;48.936;8.260;2023-04-15T06:04:33;2.30;;;2.10;;
59161;SDS011;44942;48.936;8.260;2023-04-15T06:09:34;2.60;;;2.40;;
59161;SDS011;44942;48.936;8.260;2023-04-15T06:14:35;2.40;;;2.20;;
59161;SDS011;44942;48.936;8.260;2023-04-15T06:19:35;2.43;;;2.13;;
59161;SDS011;44942;48.936;8.260;2023-04-15T06:24:36;2.70;;;2.20;;
59161;SDS011;44942;48.936;8.260;2023-04-15T06:29:36;2.50;;;2.30;;
59161;SDS011;44942;48.936;8.260;2023-04-15T06:34:37;2.43;;;2.23;;
59161;SDS011;44942;48.936;8.260;2023-04-15T06:39:38;2.40;;;2.20;;
59161;SDS011;44942;48.936;8.260;2023-04-15T06:44:39;2.45;;;2.08;;
59161;SDS011;44942;48.936;8.260;2023-04-15T06:49:40;2.47;;;2.28;;
59161;SDS011;44942;48.936;8.260;2023-04-15T06:54:42;2.05;;;1.88;;
59161;SDS011;44942;48.936;8.260;2023-04-15T06:59:42;2.43;;;2.10;;
59161;SDS011;44942;48.936;8.260;2023-04-15T07:04:43;2.37;;;2.17;;
59161;SDS011;44942;48.936;8.260;2023-04-15T07:09:43;2.40;;;2.20;;
59161;SDS011;44942;48.936;8.260;2023-04-15T07:14:44;2.33;;;2.10;;
59161;SDS011;44942;48.936;8.260;2023-04-15T07:19:44;2.50;;;2.30;;
59161;SDS011;44942;48.936;8.260;2023-04-15T07:24:45;2.27;;;2.07;;
59161;SDS011;44942;48.936;8.260;2023-04-15T07:29:46;2.30;;;2.10;;
59161;SDS011;44942;48.936;8.260;2023-04-15T07:34:47;2.30;;;2.10;;
59161;SDS011;44942;48.936;8.260;2023-04-15T07:39:47;2.20;;;1.80;;
59161;SDS011;44942;48.936;8.260;2023-04-15T07:44:48;2.43;;;2.10;;
59161;SDS011;44942;48.936;8.260;2023-04-15T07:49:48;2.60;;;2.00;;
59161;SDS011;44942;48.936;8.260;2023-04-15T07:59:50;2.17;;;1.97;;
59161;SDS011;44942;48.936;8.260;2023-04-15T08:04:51;1.87;;;1.70;;
59161;SDS011;44942;48.936;8.260;2023-04-15T08:14:53;2.30;;;2.00;;
59161;SDS011;44942;48.936;8.260;2023-04-15T08:19:55;2.10;;;1.90;;
59161;SDS011;44942;48.936;8.260;2023-04-15T08:24:56;2.30;;;1.90;;
59161;SDS011;44942;48.936;8.260;2023-04-15T08:29:57;2.30;;;2.10;;
59161;SDS011;44942;48.936;8.260;2023-04-15T08:34:57;2.00;;;1.80;;
59161;SDS011;44942;48.936;8.260;2023-04-15T08:39:58;2.63;;;2.03;;
59161;SDS011;44942;48.936;8.260;2023-04-15T08:44:59;2.00;;;1.80;;
59161;SDS011;44942;48.936;8.260;2023-04-15T08:50:02;2.53;;;2.08;;
59161;SDS011;44942;48.936;8.260;2023-04-15T09:00:05;2.07;;;1.70;;
59161;SDS011;44942;48.936;8.260;2023-04-15T09:10:07;2.00;;;1.80;;
59161;SDS011;44942;48.936;8.260;2023-04-15T09:15:10;2.05;;;1.80;;
59161;SDS011;44942;48.936;8.260;2023-04-15T09:20:12;2.60;;;2.03;;
59161;SDS011;44942;48.936;8.260;2023-04-15T09:30:21;2.33;;;1.88;;
59161;SDS011;44942;48.936;8.260;2023-04-15T09:35:23;1.73;;;1.63;;
59161;SDS011;44942;48.936;8.260;2023-04-15T09:40:35;2.45;;;2.15;;
59161;SDS011;44942;48.936;8.260;2023-04-15T09:45:46;2.08;;;1.88;;
59161;SDS011;44942;48.936;8.260;2023-04-15T09:50:48;2.92;;;1.98;;
59161;SDS011;44942;48.936;8.260;2023-04-15T09:55:50;2.08;;;1.80;;
59161;SDS011;44942;48.936;8.260;2023-04-15T10:00:52;3.03;;;2.10;;
59161;SDS011;44942;48.936;8.260;2023-04-15T10:05:55;1.92;;;1.73;;
59161;SDS011;44942;48.936;8.260;2023-04-15T10:10:56;1.65;;;1.55;;
59161;SDS011;44942;48.936;8.260;2023-04-15T10:15:57;1.87;;;1.63;;
59161;SDS011;44942;48.936;8.260;2023-04-15T10:21:00;2.28;;;1.90;;
59161;SDS011;44942;48.936;8.260;2023-04-15T10:26:01;2.13;;;1.77;;
59161;SDS011;44942;48.936;8.260;2023-04-15T10:31:03;2.15;;;1.92;;
59161;SDS011;44942;48.936;8.260;2023-04-15T10:36:05;1.67;;;1.58;;
59161;SDS011;44942;48.936;8.260;2023-04-15T10:46:23;2.38;;;1.90;;
59161;SDS011;44942;48.936;8.260;2023-04-15T10:51:39;1.90;;;1.70;;
59161;SDS011;44942;48.936;8.260;2023-04-15T10:56:44;2.28;;;1.65;;
59161;SDS011;44942;48.936;8.260;2023-04-15T11:01:56;2.20;;;1.70;;
59161;SDS011;44942;48.936;8.260;2023-04-15T11:07:04;2.03;;;1.60;;
59161;SDS011;44942;48.936;8.260;2023-04-15T11:12:06;1.70;;;1.60;;
59161;SDS011;44942;48.936;8.260;2023-04-15T11:17:08;1.98;;;1.77;;
59161;SDS011;44942;48.936;8.260;2023-04-15T11:22:09;2.03;;;1.73;;
59161;SDS011;44942;48.936;8.260;2023-04-15T11:27:19;1.60;;;1.42;;
59161;SDS011;44942;48.936;8.260;2023-04-15T11:32:20;2.00;;;1.77;;
59161;SDS011;44942;48.936;8.260;2023-04-15T11:37:26;2.00;;;1.80;;
59161;SDS011;44942;48.936;8.260;2023-04-15T11:42:28;2.17;;;1.83;;
59161;SDS011;44942;48.936;8.260;2023-04-15T11:47:29;1.53;;;1.40;;
59161;SDS011;44942;48.936;8.260;2023-04-15T11:52:30;1.50;;;1.40;;
59161;SDS011;44942;48.936;8.260;2023-04-15T11:57:30;2.90;;;1.80;;
59161;SDS011;44942;48.936;8.260;2023-04-15T12:02:31;1.60;;;1.50;;
59161;SDS011;44942;48.936;8.260;2023-04-15T12:12:58;1.55;;;1.45;;
59161;SDS011;44942;48.936;8.260;2023-04-15T12:17:59;1.73;;;1.47;;
59161;SDS011;44942;48.936;8.260;2023-04-15T12:23:05;1.50;;;1.40;;
59161;SDS011;44942;48.936;8.260;2023-04-15T12:28:09;1.80;;;1.55;;
59161;SDS011;44942;48.936;8.260;2023-04-15T12:33:10;1.60;;;1.40;;
59161;SDS011;44942;48.936;8.260;2023-04-15T12:38:11;1.60;;;1.50;;
59161;SDS011;44942;48.936;8.260;2023-04-15T12:43:11;2.80;;;1.70;;
59161;SDS011;44942;48.936;8.260;2023-04-15T12:48:12;1.67;;;1.50;;
59161;SDS011;44942;48.936;8.260;2023-04-15T12:53:13;1.80;;;1.57;;
59161;SDS011;44942;48.936;8.260;2023-04-15T12:58:13;1.97;;;1.43;;
59161;SDS011;44942;48.936;8.260;2023-04-15T13:03:14;2.03;;;1.47;;
59161;SDS011;44942;48.936;8.260;2023-04-15T13:08:15;1.55;;;1.45;;
59161;SDS011;44942;48.936;8.260;2023-04-15T13:13:15;1.83;;;1.50;;
59161;SDS011;44942;48.936;8.260;2023-04-15T13:18:16;1.50;;;1.40;;
59161;SDS011;44942;48.936;8.260;2023-04-15T13:23:17;1.40;;;1.30;;
59161;SDS011;44942;48.936;8.260;2023-04-15T13:28:17;1.53;;;1.40;;
59161;SDS011;44942;48.936;8.260;2023-04-15T13:33:18;1.40;;;1.30;;
59161;SDS011;44942;48.936;8.260;2023-04-15T13:38:19;1.57;;;1.47;;
59161;SDS011;44942;48.936;8.260;2023-04-15T13:43:19;1.30;;;1.20;;
59161;SDS011;44942;48.936;8.260;2023-04-15T13:48:22;1.63;;;1.40;;
59161;SDS011;44942;48.936;8.260;2023-04-15T13:53:23;1.50;;;1.20;;
59161;SDS011;44942;48.936;8.260;2023-04-15T13:58:23;1.50;;;1.37;;
59161;SDS011;44942;48.936;8.260;2023-04-15T14:03:24;1.33;;;1.20;;
59161;SDS011;44942;48.936;8.260;2023-04-15T14:08:24;1.73;;;1.30;;
59161;SDS011;44942;48.936;8.260;2023-04-15T14:13:25;1.30;;;1.20;;
59161;SDS011;44942;48.936;8.260;2023-04-15T14:18:25;1.40;;;1.30;;
59161;SDS011;44942;48.936;8.260;2023-04-15T14:23:26;1.50;;;1.10;;
59161;SDS011;44942;48.936;8.260;2023-04-15T14:28:27;1.10;;;1.00;;
59161;SDS011;44942;48.936;8.260;2023-04-15T14:33:28;1.55;;;1.38;;
59161;SDS011;44942;48.936;8.260;2023-04-15T14:38:28;1.33;;;1.23;;
59161;SDS011;44942;48.936;8.260;2023-04-15T14:43:30;1.40;;;1.10;;
59161;SDS011;44942;48.936;8.260;2023-04-15T14:48:31;1.35;;;1.23;;
59161;SDS011;44942;48.936;8.260;2023-04-15T14:53:32;1.50;;;1.40;;
59161;SDS011;44942;48.936;8.260;2023-04-15T14:58:32;1.50;;;1.40;;
59161;SDS011;44942;48.936;8.260;2023-04-15T15:03:33;1.60;;;1.50;;
59161;SDS011;44942;48.936;8.260;2023-04-15T15:08:33;1.40;;;1.30;;
59161;SDS011;44942;48.936;8.260;2023-04-15T15:13:35;1.20;;;1.10;;
59161;SDS011;44942;48.936;8.260;2023-04-15T15:18:36;1.53;;;1.30;;
59161;SDS011;44942;48.936;8.260;2023-04-15T15:23:36;1.30;;;1.20;;
59161;SDS011;44942;48.936;8.260;2023-04-15T15:28:37;1.30;;;1.20;;
59161;SDS011;44942;48.936;8.260;2023-04-15T15:33:37;1.30;;;1.20;;
59161;SDS011;44942;48.936;8.260;2023-04-15T15:38:39;1.30;;;1.20;;
59161;SDS011;44942;48.936;8.260;2023-04-15T15:43:40;1.63;;;1.23;;
59161;SDS011;44942;48.936;8.260;2023-04-15T15:48:40;1.30;;;1.20;;
59161;SDS011;44942;48.936;8.260;2023-04-15T15:53:41;1.37;;;1.20;;
59161;SDS011;44942;48.936;8.260;2023-04-15T15:58:43;1.48;;;1.10;;
59161;SDS011;44942;48.936;8.260;2023-04-15T16:03:44;1.40;;;1.30;;
59161;SDS011;44942;48.936;8.260;2023-04-15T16:08:44;1.27;;;1.17;;
59161;SDS011;44942;48.936;8.260;2023-04-15T16:13:45;1.10;;;1.00;;
59161;SDS011;44942;48.936;8.260;2023-04-15T16:18:45;1.27;;;1.03;;
59161;SDS011;44942;48.936;8.260;2023-04-15T16:23:46;1.20;;;1.10;;
59161;SDS011;44942;48.936;8.260;2023-04-15T16:28:46;1.30;;;1.10;;
59161;SDS011;44942;48.936;8.260;2023-04-15T16:33:47;1.40;;;1.30;;
59161;SDS011;44942;48.936;8.260;2023-04-15T16:38:48;1.50;;;1.20;;
59161;SDS011;44942;48.936;8.260;2023-04-15T16:43:48;1.20;;;1.07;;
59161;SDS011;44942;48.936;8.260;2023-04-15T16:48:49;1.20;;;1.10;;
59161;SDS011;44942;48.936;8.260;2023-04-15T16:53:49;1.27;;;1.13;;
59161;SDS011;44942;48.936;8.260;2023-04-15T16:58:50;1.30;;;1.20;;
59161;SDS011;44942;48.936;8.260;2023-04-15T17:03:50;1.10;;;1.00;;
59161;SDS011;44942;48.936;8.260;2023-04-15T17:08:51;1.17;;;1.07;;
59161;SDS011;44942;48.936;8.260;2023-04-15T17:13:52;1.20;;;1.10;;
59161;SDS011;44942;48.936;8.260;2023-04-15T17:18:52;1.03;;;1.00;;
59161;SDS011;44942;48.936;8.260;2023-04-15T17:23:53;1.20;;;1.10;;
59161;SDS011;44942;48.936;8.260;2023-04-15T17:28:54;1.17;;;1.08;;
59161;SDS011;44942;48.936;8.260;2023-04-15T17:33:55;1.05;;;0.98;;
59161;SDS011;44942;48.936;8.260;2023-04-15T17:38:56;1.10;;;1.00;;
59161;SDS011;44942;48.936;8.260;2023-04-15T17:43:57;1.00;;;0.90;;
59161;SDS011;44942;48.936;8.260;2023-04-15T17:48:57;0.90;;;0.90;;
59161;SDS011;44942;48.936;8.260;2023-04-15T17:53:58;0.90;;;0.90;;
59161;SDS011;44942;48.936;8.260;2023-04-15T17:58:58;1.33;;;1.23;;
59161;SDS011;44942;48.936;8.260;2023-04-15T18:04:01;1.30;;;1.20;;
59161;SDS011;44942;48.936;8.260;2023-04-15T18:09:02;1.07;;;0.97;;
59161;SDS011;44942;48.936;8.260;2023-04-15T18:14:02;1.10;;;1.00;;
59161;SDS011;44942;48.936;8.260;2023-04-15T18:19:03;1.23;;;1.10;;
59161;SDS011;44942;48.936;8.260;2023-04-15T18:24:04;1.00;;;0.90;;
59161;SDS011;44942;48.936;8.260;2023-04-15T18:29:05;0.88;;;0.88;;
59161;SDS011;44942;48.936;8.260;2023-04-15T18:34:06;0.90;;;0.90;;
59161;SDS011;44942;48.936;8.260;2023-04-15T18:39:06;1.00;;;0.97;;
59161;SDS011;44942;48.936;8.260;2023-04-15T18:44:07;1.00;;;0.90;;
59161;SDS011;44942;48.936;8.260;2023-04-15T18:49:07;1.20;;;1.10;;
59161;SDS011;44942;48.936;8.260;2023-04-15T18:54:08;1.10;;;1.00;;
59161;SDS011;44942;48.936;8.260;2023-04-15T18:59:09;0.90;;;0.90;;
59161;SDS011;44942;48.936;8.260;2023-04-15T19:04:10;0.97;;;0.97;;
59161;SDS011;44942;48.936;8.260;2023-04-15T19:09:10;0.73;;;0.73;;
59161;SDS011;44942;48.936;8.260;2023-04-15T19:14:11;0.80;;;0.80;;
59161;SDS011;44942;48.936;8.260;2023-04-15T19:19:11;1.20;;;1.10;;
59161;SDS011;44942;48.936;8.260;2023-04-15T19:24:13;0.90;;;0.90;;
59161;SDS011;44942;48.936;8.260;2023-04-15T19:29:14;1.10;;;1.00;;
59161;SDS011;44942;48.936;8.260;2023-04-15T19:34:15;1.10;;;1.00;;
59161;SDS011;44942;48.936;8.260;2023-04-15T19:39:16;0.80;;;0.80;;
59161;SDS011;44942;48.936;8.260;2023-04-15T19:44:17;0.90;;;0.90;;
59161;SDS011;44942;48.936;8.260;2023-04-15T19:49:17;1.03;;;0.93;;
59161;SDS011;44942;48.936;8.260;2023-04-15T19:54:18;0.60;;;0.60;;
59161;SDS011;44942;48.936;8.260;2023-04-15T19:59:19;1.10;;;1.00;;
59161;SDS011;44942;48.936;8.260;2023-04-15T20:04:19;0.93;;;0.93;;
59161;SDS011;44942;48.936;8.260;2023-04-15T20:09:21;0.90;;;0.90;;
59161;SDS011;44942;48.936;8.260;2023-04-15T20:14:21;1.30;;;1.20;;
59161;SDS011;44942;48.936;8.260;2023-04-15T20:19:23;1.30;;;1.20;;
59161;SDS011;44942;48.936;8.260;2023-04-15T20:24:24;1.27;;;1.10;;
59161;SDS011;44942;48.936;8.260;2023-04-15T20:29:25;1.30;;;1.10;;
59161;SDS011;44942;48.936;8.260;2023-04-15T20:34:26;1.10;;;1.00;;
59161;SDS011;44942;48.936;8.260;2023-04-15T20:39:27;1.27;;;1.17;;
59161;SDS011;44942;48.936;8.260;2023-04-15T20:44:29;1.30;;;1.20;;
59161;SDS011;44942;48.936;8.260;2023-04-15T20:49:33;1.30;;;1.20;;
59161;SDS011;44942;48.936;8.260;2023-04-15T20:54:34;1.40;;;1.30;;
59161;SDS011;44942;48.936;8.260;2023-04-15T20:59:35;1.20;;;1.10;;
59161;SDS011;44942;48.936;8.260;2023-04-15T21:04:35;1.20;;;1.10;;
59161;SDS011;44942;48.936;8.260;2023-04-15T21:09:37;1.20;;;1.10;;
59161;SDS011;44942;48.936;8.260;2023-04-15T21:14:40;1.35;;;1.20;;
59161;SDS011;44942;48.936;8.260;2023-04-15T21:19:40;1.57;;;1.47;;
59161;SDS011;44942;48.936;8.260;2023-04-15T21:24:41;1.40;;;1.30;;
59161;SDS011;44942;48.936;8.260;2023-04-15T21:29:42;1.40;;;1.30;;
59161;SDS011;44942;48.936;8.260;2023-04-15T21:34:42;1.67;;;1.57;;
59161;SDS011;44942;48.936;8.260;2023-04-15T21:39:43;1.50;;;1.40;;
59161;SDS011;44942;48.936;8.260;2023-04-15T21:44:49;1.27;;;1.17;;
59161;SDS011;44942;48.936;8.260;2023-04-15T21:49:49;1.50;;;1.40;;
59161;SDS011;44942;48.936;8.260;2023-04-15T21:54:50;1.70;;;1.60;;
59161;SDS011;44942;48.936;8.260;2023-04-15T21:59:50;1.60;;;1.50;;
59161;SDS011;44942;48.936;8.260;2023-04-15T22:04:51;1.43;;;1.33;;
59161;SDS011;44942;48.936;8.260;2023-04-15T22:09:52;1.40;;;1.30;;
59161;SDS011;44942;48.936;8.260;2023-04-15T22:14:52;1.57;;;1.47;;
59161;SDS011;44942;48.936;8.260;2023-04-15T22:19:55;1.50;;;1.40;;
59161;SDS011;44942;48.936;8.260;2023-04-15T22:24:55;1.50;;;1.40;;
59161;SDS011;44942;48.936;8.260;2023-04-15T22:29:56;1.43;;;1.33;;
59161;SDS011;44942;48.936;8.260;2023-04-15T22:34:56;1.30;;;1.20;;
59161;SDS011;44942;48.936;8.260;2023-04-15T22:39:57;1.60;;;1.50;;
59161;SDS011;44942;48.936;8.260;2023-04-15T22:44:58;2.85;;;1.30;;
59161;SDS011;44942;48.936;8.260;2023-04-15T22:49:58;1.50;;;1.40;;
59161;SDS011;44942;48.936;8.260;2023-04-15T22:54:59;1.63;;;1.53;;
59161;SDS011;44942;48.936;8.260;2023-04-15T22:59:59;1.40;;;1.30;;
59161;SDS011;44942;48.936;8.260;2023-04-15T23:05:00;1.55;;;1.45;;
59161;SDS011;44942;48.936;8.260;2023-04-15T23:10:01;1.53;;;1.43;;
59161;SDS011;44942;48.936;8.260;2023-04-15T23:15:02;1.50;;;1.40;;
59161;SDS011;44942;48.936;8.260;2023-04-15T23:20:02;1.70;;;1.60;;
59161;SDS011;44942;48.936;8.260;2023-04-15T23:25:03;1.60;;;1.50;;
59161;SDS011;44942;48.936;8.260;2023-04-15T23:30:05;1.55;;;1.45;;
59161;SDS011;44942;48.936;8.260;2023-04-15T23:35:06;1.67;;;1.58;;
59161;SDS011;44942;48.936;8.260;2023-04-15T23:40:07;1.70;;;1.60;;
59161;SDS011;44942;48.936;8.260;2023-04-15T23:45:08;1.88;;;1.50;;
59161;SDS011;44942;48.936;8.260;2023-04-15T23:50:09;1.75;;;1.65;;
59161;SDS011;44942;48.936;8.260;2023-04-15T23:55:10;1.80;;;1.70;;
